Time;durP1;ratioP1;P1;durP2;ratioP2;P2;SDS_P1;SDS_P2;PMS_P1;PMS_P2;Temp;Humidity;BMP_temperature;BMP_pressure;BME280_temperature;BME280_humidity;BME280_pressure;Samples;Min_cycle;Max_cycle;Signal;HPM_P1;HPM_P2
2021/03/26 00:02:24;;;;;;;4.55;2.35;;;5.80;99.90;;;;;;5017591;28;20078;-77
2021/03/26 00:04:50;;;;;;;6.05;3.25;;;5.30;99.90;;;;;;5025343;28;20082;-78
2021/03/26 00:07:15;;;;;;;5.32;2.92;;;5.00;99.90;;;;;;5014929;28;20090;-77
2021/03/26 00:09:41;;;;;;;4.45;2.42;;;5.00;99.90;;;;;;5009903;28;20117;-78
2021/03/26 00:12:12;;;;;;;5.50;2.30;;;5.20;99.90;;;;;;5012161;28;20085;-77
2021/03/26 00:14:37;;;;;;;5.18;3.03;;;5.40;99.90;;;;;;5024730;28;20086;-77
2021/03/26 00:17:03;;;;;;;4.43;2.70;;;5.30;99.90;;;;;;5017946;28;20090;-77
2021/03/26 00:19:29;;;;;;;5.05;2.78;;;5.30;99.90;;;;;;5015275;28;20117;-77
2021/03/26 00:21:55;;;;;;;4.65;2.53;;;5.30;99.90;;;;;;5012000;28;20084;-77
2021/03/26 00:24:20;;;;;;;4.78;2.47;;;5.00;99.90;;;;;;5019562;28;20078;-77
2021/03/26 00:26:46;;;;;;;3.53;2.33;;;5.10;99.90;;;;;;5018749;28;20106;-77
2021/03/26 00:29:11;;;;;;;4.45;3.03;;;5.30;99.90;;;;;;5017610;28;20576;-77
2021/03/26 00:31:42;;;;;;;4.30;2.78;;;5.50;99.90;;;;;;5024919;28;20085;-78
2021/03/26 00:34:08;;;;;;;4.88;2.75;;;5.20;99.90;;;;;;5011364;28;20078;-78
2021/03/26 00:36:35;;;;;;;4.15;2.65;;;5.10;99.90;;;;;;5035500;28;20085;-77
2021/03/26 00:39:05;;;;;;;4.78;2.72;;;5.10;99.90;;;;;;5037016;28;20082;-76
2021/03/26 00:41:31;;;;;;;5.80;3.28;;;4.70;99.90;;;;;;5027858;28;20078;-77
2021/03/26 00:43:57;;;;;;;5.45;3.35;;;4.90;99.90;;;;;;5029636;28;20081;-76
2021/03/26 00:46:24;;;;;;;5.38;2.97;;;4.90;99.90;;;;;;5025091;28;20165;-77
2021/03/26 00:48:50;;;;;;;7.68;3.35;;;4.70;99.90;;;;;;5025053;28;20117;-77
2021/03/26 00:51:16;;;;;;;6.22;2.78;;;4.60;99.90;;;;;;5016081;28;20074;-77
2021/03/26 00:53:41;;;;;;;6.25;3.25;;;4.60;99.90;;;;;;5023187;28;20081;-77
2021/03/26 00:56:07;;;;;;;5.03;3.00;;;4.70;99.90;;;;;;5019182;28;20077;-77
2021/03/26 00:58:33;;;;;;;4.97;2.92;;;4.80;99.90;;;;;;5010422;28;20503;-76
2021/03/26 01:00:59;;;;;;;4.45;2.83;;;4.80;99.90;;;;;;5019999;28;20110;-77
2021/03/26 01:03:27;;;;;;;4.30;2.35;;;4.80;99.90;;;;;;5015173;28;20443;-77
2021/03/26 01:05:56;;;;;;;3.67;2.30;;;4.80;99.90;;;;;;5015726;28;20530;-78
2021/03/26 01:08:23;;;;;;;4.60;2.50;;;4.80;99.90;;;;;;5022056;28;20181;-77
2021/03/26 01:10:56;;;;;;;3.60;2.35;;;4.80;99.90;;;;;;5021020;28;20085;-77
2021/03/26 01:13:22;;;;;;;6.95;3.45;;;4.70;99.90;;;;;;5022466;28;20070;-77
2021/03/26 01:15:48;;;;;;;7.03;3.47;;;4.90;99.90;;;;;;5031960;28;20699;-77
2021/03/26 01:18:30;;;;;;;6.13;3.03;;;5.10;99.90;;;;;;5023762;28;20093;-77
2021/03/26 01:20:57;;;;;;;5.53;3.28;;;5.00;99.90;;;;;;5031781;28;20089;-77
2021/03/26 01:23:23;;;;;;;6.07;2.83;;;5.00;99.90;;;;;;5032790;28;20090;-77
2021/03/26 01:25:49;;;;;;;4.20;2.60;;;4.70;99.90;;;;;;5026182;28;20152;-77
2021/03/26 01:28:18;;;;;;;6.28;2.80;;;4.50;99.90;;;;;;5015241;28;20185;-77
2021/03/26 01:30:46;;;;;;;6.95;2.90;;;4.60;99.90;;;;;;5016904;28;20713;-77
2021/03/26 01:33:12;;;;;;;8.90;3.13;;;4.60;99.90;;;;;;5015724;28;20071;-76
2021/03/26 01:35:39;;;;;;;5.57;2.97;;;4.40;99.90;;;;;;5024436;28;20100;-77
2021/03/26 01:38:06;;;;;;;7.85;3.00;;;4.30;99.90;;;;;;5023703;28;20293;-77
2021/03/26 01:41:03;;;;;;;6.22;3.20;;;4.60;99.90;;;;;;5018209;28;20667;-77
2021/03/26 01:43:32;;;;;;;6.30;3.17;;;4.80;99.90;;;;;;5016005;28;20105;-77
2021/03/26 01:45:59;;;;;;;7.50;3.47;;;4.50;99.90;;;;;;5028082;28;20074;-77
2021/03/26 01:48:27;;;;;;;5.70;3.60;;;4.30;99.90;;;;;;5016494;28;20101;-77
2021/03/26 01:50:54;;;;;;;4.63;2.80;;;4.30;99.90;;;;;;5020563;28;20093;-77
2021/03/26 01:53:21;;;;;;;7.70;4.10;;;4.10;99.90;;;;;;5022385;28;20086;-79
2021/03/26 01:55:48;;;;;;;7.72;3.45;;;4.10;99.90;;;;;;5018121;28;20086;-76
2021/03/26 01:58:21;;;;;;;9.20;3.92;;;4.40;99.90;;;;;;5019767;28;20571;-77
2021/03/26 02:00:52;;;;;;;7.60;3.88;;;4.60;99.90;;;;;;5020704;28;20536;-77
2021/03/26 02:03:23;;;;;;;7.35;3.15;;;4.50;99.90;;;;;;5032719;28;20079;-77
2021/03/26 02:05:51;;;;;;;6.57;3.53;;;4.30;99.90;;;;;;5020155;28;20082;-77
2021/03/26 02:08:25;;;;;;;6.53;3.53;;;4.10;99.90;;;;;;5022090;28;20114;-76
2021/03/26 02:10:51;;;;;;;6.57;2.95;;;4.00;99.90;;;;;;5022166;28;20074;-77
2021/03/26 02:13:43;;;;;;;7.50;3.92;;;4.10;99.90;;;;;;5028798;28;20081;-77
2021/03/26 02:16:10;;;;;;;5.90;3.35;;;4.10;99.90;;;;;;5015361;28;20147;-77
2021/03/26 02:18:39;;;;;;;10.07;3.70;;;4.10;99.90;;;;;;5028401;28;20085;-78
2021/03/26 02:21:21;;;;;;;6.03;3.30;;;3.90;99.90;;;;;;5027831;28;20417;-76
2021/03/26 02:23:48;;;;;;;4.75;3.28;;;4.10;99.90;;;;;;5020301;28;20089;-77
2021/03/26 02:26:23;;;;;;;6.55;3.33;;;3.90;99.90;;;;;;5020860;28;20093;-77
2021/03/26 02:28:51;;;;;;;4.93;2.90;;;4.10;99.90;;;;;;5030865;28;20160;-77
2021/03/26 02:31:17;;;;;;;6.03;3.58;;;4.00;99.90;;;;;;5023512;28;20101;-78
2021/03/26 02:33:44;;;;;;;7.97;3.72;;;4.10;99.90;;;;;;5016463;28;20105;-77
2021/03/26 02:36:16;;;;;;;6.10;3.53;;;4.10;99.90;;;;;;5025933;28;20536;-77
2021/03/26 02:38:52;;;;;;;9.05;3.50;;;3.80;99.90;;;;;;5012336;28;20177;-78
2021/03/26 02:41:33;;;;;;;6.00;3.72;;;3.90;99.90;;;;;;5015646;28;20078;-77
2021/03/26 02:44:13;;;;;;;8.32;3.75;;;3.90;99.90;;;;;;5011914;28;20101;-77
2021/03/26 02:46:57;;;;;;;5.82;3.63;;;3.80;99.90;;;;;;5015285;28;20604;-77
2021/03/26 02:49:27;;;;;;;6.10;3.10;;;3.60;99.90;;;;;;5014850;28;20106;-77
2021/03/26 02:52:23;;;;;;;6.13;3.58;;;3.60;99.90;;;;;;5024806;28;20074;-77
2021/03/26 02:55:07;;;;;;;9.10;4.93;;;3.50;99.90;;;;;;5019771;28;20093;-76
2021/03/26 02:57:40;;;;;;;6.80;3.72;;;3.70;99.90;;;;;;5029771;28;20147;-78
2021/03/26 03:00:12;;;;;;;6.75;4.03;;;4.10;99.90;;;;;;5020360;28;20078;-77
2021/03/26 03:02:40;;;;;;;6.95;3.55;;;3.60;99.90;;;;;;5012698;28;20456;-77
2021/03/26 03:05:24;;;;;;;9.18;4.57;;;3.60;99.90;;;;;;5020830;28;20086;-77
2021/03/26 03:08:01;;;;;;;5.85;3.38;;;3.90;99.90;;;;;;5012769;28;20101;-77
2021/03/26 03:10:38;;;;;;;7.80;3.65;;;3.80;99.90;;;;;;5028319;28;20104;-78
2021/03/26 03:13:40;;;;;;;7.28;4.00;;;3.70;99.90;;;;;;5017209;28;20463;-76
2021/03/26 03:16:24;;;;;;;9.35;3.63;;;3.50;99.90;;;;;;5023002;28;20078;-78
2021/03/26 03:19:10;;;;;;;5.75;3.65;;;3.40;99.90;;;;;;5020041;28;20591;-76
2021/03/26 03:21:43;;;;;;;7.93;4.07;;;3.50;99.90;;;;;;5013918;28;20182;-78
2021/03/26 03:24:13;;;;;;;5.80;3.47;;;3.60;99.90;;;;;;5023546;28;20610;-77
2021/03/26 03:27:23;;;;;;;9.20;4.35;;;3.50;99.90;;;;;;5018068;28;20617;-77
2021/03/26 03:29:55;;;;;;;8.75;4.50;;;3.70;99.90;;;;;;5027985;28;20547;-76
2021/03/26 03:32:41;;;;;;;9.13;4.78;;;3.60;99.90;;;;;;5019860;28;20074;-77
2021/03/26 03:35:09;;;;;;;11.13;4.15;;;3.40;99.90;;;;;;5011411;28;20152;-77
2021/03/26 03:37:56;;;;;;;6.65;4.15;;;3.30;99.90;;;;;;5011840;28;20113;-77
2021/03/26 03:40:51;;;;;;;8.73;3.70;;;3.40;99.90;;;;;;5026249;28;20113;-77
2021/03/26 03:43:43;;;;;;;8.25;4.20;;;3.40;99.90;;;;;;5027699;28;20082;-78
2021/03/26 03:46:40;;;;;;;9.63;4.00;;;3.70;99.90;;;;;;5014333;28;20066;-78
2021/03/26 03:49:34;;;;;;;9.23;4.25;;;3.60;99.90;;;;;;5009319;28;20516;-77
2021/03/26 03:52:33;;;;;;;10.15;4.78;;;3.70;99.90;;;;;;5019591;28;20070;-77
2021/03/26 03:55:19;;;;;;;6.55;3.72;;;3.70;99.90;;;;;;5014717;28;20077;-77
2021/03/26 03:57:51;;;;;;;8.45;4.10;;;3.50;99.90;;;;;;5012433;28;20498;-77
2021/03/26 04:00:23;;;;;;;10.77;4.53;;;3.30;99.90;;;;;;5017821;28;20077;-77
2021/03/26 04:03:10;;;;;;;10.05;4.95;;;3.10;99.90;;;;;;5029444;28;20077;-77
2021/03/26 04:05:45;;;;;;;7.30;4.32;;;3.10;99.90;;;;;;5012140;28;20077;-77
2021/03/26 04:08:17;;;;;;;9.40;4.53;;;3.00;99.90;;;;;;5013010;28;20575;-77
2021/03/26 04:10:48;;;;;;;10.13;5.03;;;3.00;99.90;;;;;;5030205;28;20082;-78
2021/03/26 04:13:23;;;;;;;6.82;4.45;;;3.00;99.90;;;;;;5030504;28;20105;-77
2021/03/26 04:15:54;;;;;;;6.75;3.97;;;3.20;99.90;;;;;;5016188;28;20121;-78
2021/03/26 04:18:25;;;;;;;6.47;3.80;;;2.90;99.90;;;;;;5032245;28;20094;-78
2021/03/26 04:21:03;;;;;;;7.35;4.30;;;2.80;99.90;;;;;;5051172;28;20073;-77
2021/03/26 04:23:40;;;;;;;8.55;5.25;;;2.90;99.90;;;;;;5039754;28;20078;-77
2021/03/26 04:26:31;;;;;;;9.57;4.55;;;3.20;99.90;;;;;;5012784;28;20157;-78
2021/03/26 04:29:10;;;;;;;10.50;4.72;;;3.10;99.90;;;;;;5018990;28;20091;-76
2021/03/26 04:31:45;;;;;;;11.30;4.70;;;2.90;99.90;;;;;;5021373;28;20077;-76
2021/03/26 04:34:13;;;;;;;6.68;3.78;;;3.00;99.90;;;;;;5030555;28;20062;-77
2021/03/26 04:37:00;;;;;;;9.05;5.15;;;3.20;99.90;;;;;;5020363;28;20481;-77
2021/03/26 04:39:45;;;;;;;9.95;5.18;;;3.10;99.90;;;;;;5011724;28;20109;-77
2021/03/26 04:42:38;;;;;;;6.60;3.95;;;2.90;99.90;;;;;;5022606;28;20173;-77
2021/03/26 04:45:26;;;;;;;9.60;5.13;;;2.80;99.90;;;;;;5016364;28;20082;-78
2021/03/26 04:48:06;;;;;;;8.48;5.25;;;2.60;99.90;;;;;;5011221;28;20099;-77
2021/03/26 04:51:15;;;;;;;8.13;4.60;;;2.50;99.90;;;;;;5028944;28;20467;-77
2021/03/26 04:54:06;;;;;;;7.22;4.65;;;2.50;99.90;;;;;;4993154;28;20094;-78
2021/03/26 04:56:38;;;;;;;12.55;5.18;;;2.70;99.90;;;;;;5018248;28;20078;-77
2021/03/26 04:59:05;;;;;;;9.35;4.38;;;2.60;99.90;;;;;;5029377;28;20082;-77
2021/03/26 05:01:32;;;;;;;7.38;4.40;;;2.60;99.90;;;;;;5016508;28;20081;-76
2021/03/26 05:04:14;;;;;;;7.57;4.97;;;2.40;99.90;;;;;;5033418;28;20078;-77
2021/03/26 05:06:44;;;;;;;9.65;4.65;;;2.30;99.90;;;;;;5028485;28;20105;-77
2021/03/26 05:09:15;;;;;;;11.23;5.05;;;2.40;99.90;;;;;;5017826;28;20090;-77
2021/03/26 05:11:47;;;;;;;7.70;4.35;;;2.80;99.90;;;;;;5023721;28;20532;-76
2021/03/26 05:14:32;;;;;;;10.52;4.38;;;3.10;99.90;;;;;;5033292;28;20153;-79
2021/03/26 05:17:00;;;;;;;;;;;3.20;99.90;;;;;;5027842;28;20125;-77
2021/03/26 05:20:05;;;;;;;8.32;5.13;;;3.20;99.90;;;;;;5012022;28;19958;-77
2021/03/26 05:22:48;;;;;;;10.45;4.43;;;2.70;99.90;;;;;;4996412;28;20173;-77
2021/03/26 05:25:19;;;;;;;9.35;4.78;;;2.70;99.90;;;;;;5015273;28;20455;-78
2021/03/26 05:27:46;;;;;;;9.07;5.30;;;3.10;99.90;;;;;;5021819;28;20108;-78
2021/03/26 05:30:25;;;;;;;10.80;5.85;;;3.30;99.90;;;;;;5015092;28;20705;-76
2021/03/26 05:33:08;;;;;;;7.82;5.10;;;3.30;99.90;;;;;;5025230;28;20169;-77
2021/03/26 05:35:50;;;;;;;9.45;5.25;;;2.70;99.90;;;;;;5027821;28;20069;-77
2021/03/26 05:38:28;;;;;;;9.48;5.22;;;2.90;99.90;;;;;;5022780;28;20556;-78
2021/03/26 05:40:57;;;;;;;10.55;6.20;;;2.60;99.90;;;;;;5024473;28;20079;-77
2021/03/26 05:43:54;;;;;;;10.63;5.05;;;2.60;99.90;;;;;;5017858;28;20078;-76
2021/03/26 05:46:29;;;;;;;12.85;5.40;;;2.80;99.90;;;;;;5020804;28;20074;-76
2021/03/26 05:49:15;;;;;;;9.55;5.93;;;3.20;99.90;;;;;;5012950;28;20582;-76
2021/03/26 05:52:05;;;;;;;14.20;6.30;;;3.20;99.90;;;;;;5025114;28;20081;-77
2021/03/26 05:54:50;;;;;;;7.80;4.57;;;3.20;99.90;;;;;;5016086;28;20078;-77
2021/03/26 05:57:28;;;;;;;10.88;5.63;;;3.00;99.90;;;;;;5024691;28;20237;-78
2021/03/26 06:00:05;;;;;;;9.27;4.75;;;2.90;99.90;;;;;;5015606;28;20164;-77
2021/03/26 06:03:14;;;;;;;8.15;4.38;;;3.00;99.90;;;;;;5023986;28;20191;-77
2021/03/26 06:05:58;;;;;;;11.02;4.60;;;3.40;99.90;;;;;;5021685;28;20603;-80
2021/03/26 06:08:56;;;;;;;9.98;4.38;;;3.60;99.90;;;;;;5014534;28;20089;-77
2021/03/26 06:11:58;;;;;;;12.10;5.05;;;3.60;99.90;;;;;;5020065;28;20074;-79
2021/03/26 06:14:43;;;;;;;9.85;5.40;;;3.30;99.90;;;;;;5021549;28;20074;-77
2021/03/26 06:17:33;;;;;;;13.50;6.05;;;3.50;99.90;;;;;;5014803;28;20129;-78
2021/03/26 06:20:22;;;;;;;11.65;6.47;;;3.50;99.90;;;;;;5026129;28;20156;-76
2021/03/26 06:23:25;;;;;;;8.48;5.13;;;3.60;99.90;;;;;;5019626;28;20089;-78
2021/03/26 06:26:22;;;;;;;13.23;5.95;;;3.70;99.90;;;;;;5017258;28;20117;-76
2021/03/26 06:28:55;;;;;;;12.82;5.25;;;3.80;99.90;;;;;;5014815;28;20169;-77
2021/03/26 06:31:54;;;;;;;8.18;5.35;;;3.90;99.90;;;;;;5024958;28;20081;-78
2021/03/26 06:34:34;;;;;;;11.20;5.60;;;4.20;99.90;;;;;;5018295;28;20549;-76
2021/03/26 06:37:14;;;;;;;10.07;5.32;;;4.20;99.90;;;;;;5018729;28;20086;-76
2021/03/26 06:39:47;;;;;;;9.20;5.40;;;4.30;99.90;;;;;;5020111;28;20123;-76
2021/03/26 06:42:47;;;;;;;9.93;5.95;;;4.50;99.90;;;;;;5025939;28;20077;-76
2021/03/26 06:45:40;;;;;;;11.52;5.65;;;4.60;99.90;;;;;;5013454;28;20082;-77
2021/03/26 06:48:27;;;;;;;11.35;5.20;;;4.90;99.90;;;;;;5016265;28;20124;-76
2021/03/26 06:51:25;;;;;;;12.05;5.30;;;5.00;99.90;;;;;;5033478;28;20157;-76
2021/03/26 06:54:27;;;;;;;13.85;6.55;;;5.10;99.90;;;;;;5021172;28;20073;-76
2021/03/26 06:57:08;;;;;;;10.00;5.40;;;5.20;99.90;;;;;;5015320;28;20128;-76
2021/03/26 07:00:11;;;;;;;10.00;5.47;;;5.20;99.90;;;;;;5013247;28;20084;-77
2021/03/26 07:03:06;;;;;;;9.45;4.57;;;5.20;99.90;;;;;;5016220;28;20112;-76
2021/03/26 07:05:44;;;;;;;10.68;5.22;;;5.50;99.90;;;;;;5017331;28;20097;-77
2021/03/26 07:08:48;;;;;;;15.65;6.55;;;5.80;99.90;;;;;;5012486;28;20093;-75
2021/03/26 07:11:45;;;;;;;13.88;6.13;;;6.30;99.90;;;;;;4980002;28;20086;-77
2021/03/26 07:14:14;;;;;;;13.00;6.13;;;6.60;99.90;;;;;;5018728;28;20191;-76
2021/03/26 07:17:05;;;;;;;15.70;7.95;;;6.70;99.90;;;;;;5017225;28;20074;-76
2021/03/26 07:19:57;;;;;;;12.15;5.78;;;7.10;99.90;;;;;;5011378;28;20078;-76
2021/03/26 07:23:01;;;;;;;11.05;6.28;;;7.30;99.90;;;;;;5019774;28;20169;-77
2021/03/26 07:25:41;;;;;;;15.13;5.60;;;7.30;99.90;;;;;;5028029;28;20085;-82
2021/03/26 07:28:30;;;;;;;12.85;7.32;;;7.10;99.90;;;;;;5025918;28;20579;-76
2021/03/26 07:31:33;;;;;;;9.93;5.40;;;7.30;99.90;;;;;;5029023;28;20070;-76
2021/03/26 07:34:22;;;;;;;8.27;5.30;;;7.40;99.90;;;;;;5021425;28;20145;-77
2021/03/26 07:37:09;;;;;;;12.82;6.40;;;7.80;99.90;;;;;;5023802;28;20074;-76
2021/03/26 07:39:52;;;;;;;11.70;6.30;;;8.20;99.90;;;;;;5027136;28;20382;-77
2021/03/26 07:42:57;;;;;;;11.07;6.28;;;8.70;99.90;;;;;;5015142;28;20165;-77
2021/03/26 07:45:35;;;;;;;9.02;5.88;;;8.70;99.90;;;;;;5007552;28;20094;-76
2021/03/26 07:48:41;;;;;;;10.80;6.50;;;8.40;99.90;;;;;;5019646;28;20090;-78
2021/03/26 07:51:42;;;;;;;12.07;7.72;;;8.60;99.90;;;;;;5024198;28;20081;-77
2021/03/26 07:54:28;;;;;;;10.80;6.28;;;8.80;99.90;;;;;;5021104;28;20071;-75
2021/03/26 07:57:00;;;;;;;11.80;6.95;;;8.80;99.90;;;;;;5020673;28;20647;-77
2021/03/26 08:00:02;;;;;;;15.18;7.15;;;9.10;99.90;;;;;;5026778;28;20081;-77
2021/03/26 08:02:28;;;;;;;12.85;7.25;;;9.40;99.90;;;;;;5046543;28;20101;-76
2021/03/26 08:05:16;;;;;;;16.17;7.45;;;9.50;99.90;;;;;;5033749;28;20089;-75
2021/03/26 08:08:17;;;;;;;10.23;6.63;;;9.60;99.90;;;;;;5012268;28;20125;-75
2021/03/26 08:11:02;;;;;;;12.48;6.20;;;9.50;99.90;;;;;;5009814;28;20177;-76
2021/03/26 08:13:38;;;;;;;14.32;7.55;;;9.60;99.90;;;;;;5008991;28;20140;-76
2021/03/26 08:16:09;;;;;;;16.42;7.88;;;9.70;99.90;;;;;;5018268;28;20116;-76
2021/03/26 08:18:55;;;;;;;13.77;6.97;;;9.90;99.90;;;;;;5016012;28;20086;-77
2021/03/26 08:21:50;;;;;;;12.75;6.72;;;9.70;99.90;;;;;;5019325;28;20127;-76
2021/03/26 08:24:40;;;;;;;14.65;7.38;;;10.00;99.90;;;;;;5008976;28;20082;-75
2021/03/26 08:27:17;;;;;;;16.40;6.45;;;10.10;99.90;;;;;;5018464;28;20168;-78
2021/03/26 08:30:21;;;;;;;13.40;7.97;;;10.50;99.90;;;;;;5008894;28;20101;-77
2021/03/26 08:33:29;;;;;;;14.88;7.10;;;10.60;99.90;;;;;;5020931;28;20097;-77
2021/03/26 08:36:07;;;;;;;14.75;6.68;;;10.80;99.90;;;;;;4997570;28;20152;-76
2021/03/26 08:39:10;;;;;;;13.73;7.78;;;10.90;99.90;;;;;;5024968;28;20530;-77
2021/03/26 08:41:41;;;;;;;11.25;6.18;;;10.90;99.90;;;;;;5011786;28;20081;-77
2021/03/26 08:44:18;;;;;;;10.70;7.28;;;10.90;99.90;;;;;;5016628;28;20088;-76
2021/03/26 08:46:48;;;;;;;11.50;6.35;;;11.10;99.90;;;;;;5014317;28;20174;-76
2021/03/26 08:49:17;;;;;;;12.93;6.50;;;11.10;99.90;;;;;;5009438;28;20671;-75
2021/03/26 08:52:19;;;;;;;11.93;6.22;;;11.20;99.90;;;;;;5015965;28;20164;-76
2021/03/26 08:55:06;;;;;;;12.73;6.57;;;11.30;99.90;;;;;;5016086;28;20164;-76
2021/03/26 08:57:45;;;;;;;11.35;5.65;;;11.50;99.90;;;;;;5018196;28;20090;-76
2021/03/26 09:00:32;;;;;;;12.80;6.20;;;11.70;99.90;;;;;;5012111;28;20078;-76
2021/03/26 09:03:13;;;;;;;10.73;6.10;;;11.70;99.90;;;;;;5022372;28;20169;-76
2021/03/26 09:05:52;;;;;;;9.93;5.60;;;11.70;99.90;;;;;;5026354;28;20123;-76
2021/03/26 09:08:39;;;;;;;12.43;6.80;;;11.80;99.90;;;;;;5028223;28;20563;-76
2021/03/26 09:11:07;;;;;;;12.85;7.43;;;12.10;99.90;;;;;;5016936;28;20070;-77
2021/03/26 09:13:59;;;;;;;13.20;7.00;;;12.30;99.90;;;;;;5017422;28;20093;-78
2021/03/26 09:16:31;;;;;;;14.55;7.18;;;12.10;99.90;;;;;;4984941;28;20087;-78
2021/03/26 09:19:16;;;;;;;13.15;6.97;;;12.20;99.90;;;;;;5013139;28;20531;-77
2021/03/26 09:21:54;;;;;;;14.50;7.00;;;12.10;99.90;;;;;;5012060;28;20086;-77
2021/03/26 09:24:57;;;;;;;14.13;7.18;;;12.10;99.90;;;;;;5022685;28;20127;-77
2021/03/26 09:27:31;;;;;;;17.17;9.23;;;12.20;99.90;;;;;;5012979;28;20195;-78
2021/03/26 09:30:01;;;;;;;17.27;8.25;;;12.40;99.90;;;;;;5016243;28;20733;-76
2021/03/26 09:32:37;;;;;;;16.10;7.80;;;12.60;99.90;;;;;;5023994;28;20158;-76
2021/03/26 09:35:12;;;;;;;16.75;8.93;;;12.70;99.90;;;;;;5015348;28;20133;-76
2021/03/26 09:37:43;;;;;;;17.38;9.40;;;12.60;98.90;;;;;;5015148;28;20108;-77
2021/03/26 09:40:17;;;;;;;20.10;9.60;;;12.70;99.50;;;;;;5012989;28;20084;-76
2021/03/26 09:42:52;;;;;;;15.00;9.02;;;12.80;99.20;;;;;;5025258;28;20102;-77
2021/03/26 09:45:35;;;;;;;15.35;9.02;;;12.70;98.90;;;;;;5014773;28;20683;-76
2021/03/26 09:48:22;;;;;;;14.82;8.10;;;12.60;99.20;;;;;;5023673;28;20102;-77
2021/03/26 09:51:01;;;;;;;17.05;7.85;;;12.70;99.20;;;;;;5014434;28;20097;-76
2021/03/26 09:53:27;;;;;;;16.45;8.68;;;12.90;99.60;;;;;;5026200;28;20695;-77
2021/03/26 09:56:14;;;;;;;14.55;7.90;;;13.00;98.60;;;;;;5021166;28;20568;-76
2021/03/26 09:58:59;;;;;;;19.83;8.40;;;13.00;98.90;;;;;;5017996;28;20086;-77
2021/03/26 10:01:38;;;;;;;17.92;8.18;;;13.00;99.00;;;;;;5012876;28;20058;-79
2021/03/26 10:04:06;;;;;;;15.35;8.15;;;13.00;98.00;;;;;;5026782;28;20776;-77
2021/03/26 10:06:52;;;;;;;12.57;7.13;;;13.00;99.00;;;;;;5014686;28;20082;-76
2021/03/26 10:09:31;;;;;;;13.70;7.15;;;13.10;97.40;;;;;;5028182;28;20097;-77
2021/03/26 10:12:21;;;;;;;12.50;6.72;;;13.00;98.80;;;;;;5012908;28;20078;-78
2021/03/26 10:15:00;;;;;;;13.43;6.93;;;13.20;98.50;;;;;;5012564;28;20071;-77
2021/03/26 10:17:41;;;;;;;17.08;7.47;;;13.20;96.60;;;;;;5012200;28;20082;-78
2021/03/26 10:20:50;;;;;;;15.30;8.43;;;13.10;96.10;;;;;;5031153;28;20126;-77
2021/03/26 10:23:49;;;;;;;15.00;7.68;;;12.80;95.50;;;;;;5029554;28;20082;-80
2021/03/26 10:26:29;;;;;;;11.38;5.75;;;13.10;97.90;;;;;;5030651;28;20086;-78
2021/03/26 10:29:22;;;;;;;11.65;5.85;;;13.30;97.40;;;;;;5025411;28;20089;-76
2021/03/26 10:31:50;;;;;;;11.77;6.53;;;13.40;97.50;;;;;;5017487;28;20157;-76
2021/03/26 10:34:18;;;;;;;13.30;7.55;;;13.40;97.00;;;;;;5026690;28;20085;-76
2021/03/26 10:36:56;;;;;;;13.18;7.18;;;13.40;96.10;;;;;;5030332;28;20536;-77
2021/03/26 10:39:48;;;;;;;13.52;6.15;;;13.50;96.10;;;;;;5028965;28;20077;-78
2021/03/26 10:42:20;;;;;;;13.48;6.13;;;13.50;96.10;;;;;;5027860;28;20085;-77
2021/03/26 10:45:16;;;;;;;12.82;6.13;;;13.50;96.10;;;;;;5024350;28;20165;-77
2021/03/26 10:47:54;;;;;;;13.10;6.40;;;13.60;95.40;;;;;;5010444;28;20100;-78
2021/03/26 10:50:36;;;;;;;13.70;6.72;;;13.20;94.00;;;;;;5026169;28;20085;-76
2021/03/26 10:53:24;;;;;;;11.23;5.65;;;13.20;94.50;;;;;;5014840;28;20089;-77
2021/03/26 10:55:58;;;;;;;12.90;5.82;;;13.50;93.60;;;;;;5009271;28;20810;-76
2021/03/26 10:58:34;;;;;;;13.65;6.35;;;13.80;95.20;;;;;;5013401;28;20090;-78
2021/03/26 11:01:06;;;;;;;9.95;6.03;;;13.80;93.30;;;;;;5014428;28;20077;-76
2021/03/26 11:03:52;;;;;;;12.48;6.18;;;13.60;92.70;;;;;;5021035;28;20587;-77
2021/03/26 11:06:29;;;;;;;15.98;5.65;;;13.50;93.60;;;;;;5013092;28;20074;-77
2021/03/26 11:09:21;;;;;;;11.43;5.43;;;13.30;92.50;;;;;;5025053;28;20098;-77
2021/03/26 11:11:54;;;;;;;8.90;5.07;;;13.60;91.70;;;;;;4997018;28;20086;-79
2021/03/26 11:14:38;;;;;;;9.95;4.90;;;13.80;92.10;;;;;;5015459;28;20093;-79
2021/03/26 11:17:11;;;;;;;9.90;5.30;;;14.30;93.00;;;;;;5014356;28;20093;-78
2021/03/26 11:20:16;;;;;;;12.55;5.88;;;14.30;90.00;;;;;;5017583;28;20511;-77
2021/03/26 11:23:14;;;;;;;9.75;6.07;;;14.30;90.80;;;;;;4994520;28;20454;-78
2021/03/26 11:25:45;;;;;;;12.10;5.15;;;14.30;86.40;;;;;;5022652;28;20668;-77
2021/03/26 11:28:26;;;;;;;11.40;5.47;;;14.50;90.30;;;;;;5025744;28;20175;-78
2021/03/26 11:31:23;;;;;;;14.30;5.38;;;14.60;90.00;;;;;;5014379;28;20425;-79
2021/03/26 11:33:52;;;;;;;12.13;6.07;;;14.90;89.60;;;;;;5008848;28;20091;-79
2021/03/26 11:36:47;;;;;;;10.80;6.30;;;14.90;89.10;;;;;;5029854;28;20074;-79
2021/03/26 11:39:12;;;;;;;13.13;5.80;;;14.90;87.50;;;;;;5019174;28;20105;-78
2021/03/26 11:42:07;;;;;;;13.70;6.07;;;14.70;85.10;;;;;;5039240;28;20077;-78
2021/03/26 11:44:59;;;;;;;9.63;5.43;;;15.00;86.90;;;;;;5015884;28;20149;-78
2021/03/26 11:47:28;;;;;;;9.93;5.15;;;15.00;83.50;;;;;;5033666;28;20182;-78
2021/03/26 11:50:13;;;;;;;9.50;4.70;;;15.20;87.40;;;;;;5016503;28;20086;-77
2021/03/26 11:52:51;;;;;;;10.77;6.22;;;15.00;79.30;;;;;;5014679;28;20085;-80
2021/03/26 11:55:28;;;;;;;8.73;5.05;;;14.90;84.50;;;;;;5018421;28;20725;-78
2021/03/26 11:58:04;;;;;;;9.55;4.53;;;14.80;81.00;;;;;;5016078;28;20135;-79
2021/03/26 12:00:32;;;;;;;9.90;5.40;;;15.10;86.20;;;;;;5012025;28;20959;-78
2021/03/26 12:03:19;;;;;;;9.95;5.05;;;15.20;79.30;;;;;;5012568;28;20074;-77
2021/03/26 12:06:06;;;;;;;11.95;5.72;;;14.90;79.90;;;;;;5010369;28;20576;-78
2021/03/26 12:08:46;;;;;;;10.55;5.03;;;15.20;80.80;;;;;;5020585;28;20098;-78
2021/03/26 12:11:33;;;;;;;12.20;6.07;;;15.30;85.80;;;;;;5021644;28;20128;-78
2021/03/26 12:14:25;;;;;;;10.05;5.82;;;15.50;86.40;;;;;;5027573;28;20120;-77
2021/03/26 12:17:02;;;;;;;9.75;5.78;;;15.40;83.90;;;;;;5021786;28;20124;-77
2021/03/26 12:19:30;;;;;;;11.05;6.18;;;15.10;83.30;;;;;;5010707;28;20105;-77
2021/03/26 12:22:02;;;;;;;9.45;5.18;;;15.30;83.70;;;;;;5028915;28;20074;-78
2021/03/26 12:24:27;;;;;;;8.88;5.45;;;15.30;83.70;;;;;;5023356;28;20116;-78
2021/03/26 12:27:11;;;;;;;13.77;5.85;;;15.50;81.50;;;;;;5011501;28;20106;-80
2021/03/26 12:29:46;;;;;;;9.65;5.90;;;15.50;79.50;;;;;;5017298;28;20615;-79
2021/03/26 12:32:48;;;;;;;14.73;6.13;;;15.30;82.50;;;;;;5027959;28;20080;-79
2021/03/26 12:35:17;;;;;;;10.73;5.60;;;15.00;79.10;;;;;;5020752;28;20085;-79
2021/03/26 12:38:34;;;;;;;8.95;5.25;;;15.10;84.00;;;;;;5027566;28;20090;-78
2021/03/26 12:41:05;;;;;;;11.43;6.57;;;15.30;87.10;;;;;;4968606;28;21594;-77
2021/03/26 12:43:50;;;;;;;9.75;5.68;;;15.00;86.70;;;;;;5011382;28;20079;-78
2021/03/26 12:46:21;;;;;;;9.52;5.32;;;15.00;85.60;;;;;;5023439;28;20077;-78
2021/03/26 12:48:53;;;;;;;8.75;5.00;;;15.00;83.50;;;;;;5014759;28;20637;-80
2021/03/26 12:51:34;;;;;;;9.93;6.43;;;15.40;86.20;;;;;;5010749;28;20074;-77
2021/03/26 12:54:11;;;;;;;9.93;6.28;;;15.70;87.50;;;;;;5013600;28;20234;-78
2021/03/26 12:57:08;;;;;;;9.00;4.97;;;15.60;84.40;;;;;;5014404;28;20069;-79
2021/03/26 12:59:47;;;;;;;9.35;5.85;;;15.20;83.80;;;;;;5020869;28;20095;-79
2021/03/26 13:02:18;;;;;;;14.57;6.20;;;15.10;85.30;;;;;;5011486;28;20082;-80
2021/03/26 13:04:59;;;;;;;10.15;5.40;;;15.00;84.40;;;;;;5013087;28;20109;-79
2021/03/26 13:07:39;;;;;;;7.47;4.72;;;15.10;90.10;;;;;;5017069;28;20136;-78
2021/03/26 13:10:39;;;;;;;10.20;5.10;;;15.30;85.20;;;;;;5014697;28;20082;-76
2021/03/26 13:13:32;;;;;;;7.25;5.05;;;15.70;84.20;;;;;;5032541;28;20074;-78
2021/03/26 13:16:22;;;;;;;10.52;4.55;;;15.90;83.20;;;;;;5032967;28;20507;-77
2021/03/26 13:19:14;;;;;;;9.13;5.50;;;15.70;75.30;;;;;;5025321;28;20091;-78
2021/03/26 13:21:48;;;;;;;10.05;5.55;;;15.50;81.30;;;;;;5023905;28;20078;-77
2021/03/26 13:24:31;;;;;;;8.75;5.28;;;15.40;81.90;;;;;;5016400;28;20604;-76
2021/03/26 13:27:19;;;;;;;7.03;4.15;;;15.40;83.90;;;;;;5024224;28;20118;-77
2021/03/26 13:30:13;;;;;;;7.88;4.78;;;15.50;74.50;;;;;;5032169;28;20101;-80
2021/03/26 13:32:56;;;;;;;8.02;4.57;;;15.30;79.70;;;;;;5031937;28;20082;-78
2021/03/26 13:35:26;;;;;;;7.57;4.43;;;15.40;83.10;;;;;;5020230;28;20540;-78
2021/03/26 13:38:25;;;;;;;7.45;4.95;;;15.70;78.50;;;;;;5014184;28;20090;-77
2021/03/26 13:40:53;;;;;;;8.95;4.53;;;15.60;76.20;;;;;;4990192;28;20094;-77
2021/03/26 13:43:30;;;;;;;6.18;3.72;;;15.50;76.10;;;;;;5013588;28;20177;-79
2021/03/26 13:46:00;;;;;;;8.07;4.90;;;15.60;82.90;;;;;;5012302;28;20066;-77
2021/03/26 13:48:30;;;;;;;6.93;4.97;;;15.40;75.00;;;;;;5018815;28;20192;-77
2021/03/26 13:51:16;;;;;;;7.47;4.15;;;15.20;72.00;;;;;;5032910;28;20096;-79
2021/03/26 13:53:53;;;;;;;9.32;4.30;;;15.40;76.80;;;;;;5015812;28;20131;-78
2021/03/26 13:56:27;;;;;;;8.45;5.03;;;15.40;76.50;;;;;;5023611;28;20074;-79